Time;durP1;ratioP1;P1;durP2;ratioP2;P2;SDS_P1;SDS_P2;PMS_P1;PMS_P2;Temp;Humidity;BMP_temperature;BMP_pressure;BME280_temperature;BME280_humidity;BME280_pressure;Samples;Min_cycle;Max_cycle;Signal;HPM_P1;HPM_P2
2023/06/09 00:01:20;;;;;;;21.93;20.43;;;18.20;99.90;;;;;;2613729;54;20413;-73
2023/06/09 00:07:07;;;;;;;20.93;19.40;;;18.00;99.90;;;;;;2613850;39;20830;-74
2023/06/09 00:12:55;;;;;;;23.33;21.60;;;17.80;99.90;;;;;;2613584;54;20148;-74
2023/06/09 00:18:43;;;;;;;21.20;19.77;;;17.60;99.90;;;;;;2613515;54;20148;-74
2023/06/09 00:24:30;;;;;;;21.87;20.37;;;17.40;99.90;;;;;;2613352;54;20475;-74
2023/06/09 00:30:22;;;;;;;20.40;18.97;;;17.20;99.90;;;;;;2614012;54;20130;-74
2023/06/09 00:36:10;;;;;;;22.73;21.07;;;17.00;99.90;;;;;;2615196;54;20411;-74
2023/06/09 00:41:58;;;;;;;20.93;19.43;;;16.90;99.90;;;;;;2615291;54;20387;-73
2023/06/09 00:47:45;;;;;;;21.53;19.57;;;16.70;99.90;;;;;;2614861;54;20149;-74
2023/06/09 00:50:43;;;;;;;20.50;18.90;;;16.70;99.90;;;;;;2614855;54;20427;-74
2023/06/09 00:53:09;;;;;;;20.27;18.67;;;16.60;99.90;;;;;;2614354;47;20158;-74
2023/06/09 00:58:58;;;;;;;20.10;18.63;;;16.70;99.90;;;;;;2614924;54;20511;-73
2023/06/09 01:04:49;;;;;;;20.57;19.10;;;16.50;99.90;;;;;;2613861;54;20416;-71
2023/06/09 01:17:19;;;;;;;19.97;18.37;;;16.80;99.90;;;;;;2610294;54;20380;-72
2023/06/09 01:29:43;;;;;;;18.13;16.83;;;17.00;99.90;;;;;;2609408;54;21008;-72
2023/06/09 01:35:31;;;;;;;18.33;16.63;;;17.20;99.90;;;;;;2613406;54;20464;-72
2023/06/09 01:41:19;;;;;;;19.67;17.77;;;17.00;99.90;;;;;;2612886;54;20394;-72
2023/06/09 01:47:07;;;;;;;17.30;16.10;;;17.00;99.90;;;;;;2610150;54;20130;-70
2023/06/09 01:59:24;;;;;;;18.47;16.93;;;16.80;99.90;;;;;;2610370;54;20994;-72
2023/06/09 02:05:15;;;;;;;19.30;17.43;;;16.60;99.90;;;;;;2610611;39;21437;-72
2023/06/09 02:11:04;;;;;;;18.30;16.70;;;16.60;99.90;;;;;;2610494;54;20962;-71
2023/06/09 02:16:54;;;;;;;17.90;16.30;;;16.50;99.90;;;;;;2613660;54;20458;-71
2023/06/09 02:22:42;;;;;;;17.77;16.40;;;16.60;99.90;;;;;;2610416;54;21416;-71
2023/06/09 02:28:30;;;;;;;18.67;16.63;;;16.50;99.90;;;;;;2610791;54;20122;-72
2023/06/09 02:34:19;;;;;;;17.87;16.53;;;16.40;99.90;;;;;;2611660;54;20909;-71
2023/06/09 02:40:08;;;;;;;18.03;16.43;;;16.40;99.90;;;;;;2611442;54;20363;-70
2023/06/09 02:45:56;;;;;;;17.13;15.53;;;16.40;99.90;;;;;;2611225;54;20491;-71
2023/06/09 02:55:18;;;;;;;18.43;16.93;;;16.10;99.90;;;;;;2611352;54;20399;-69
2023/06/09 03:01:07;;;;;;;18.00;16.30;;;16.10;99.90;;;;;;2612679;39;20706;-73
2023/06/09 03:06:55;;;;;;;17.93;16.30;;;15.90;99.90;;;;;;2611539;54;20492;-74
2023/06/09 03:12:42;;;;;;;17.50;16.13;;;15.80;99.90;;;;;;2611627;54;20195;-74
2023/06/09 03:18:30;;;;;;;18.70;16.90;;;15.60;99.90;;;;;;2611464;54;20154;-73
2023/06/09 03:24:19;;;;;;;18.00;16.00;;;15.40;99.90;;;;;;2614762;54;20972;-73
2023/06/09 03:30:07;;;;;;;17.60;16.00;;;15.40;99.90;;;;;;2614981;54;20511;-74
2023/06/09 03:35:55;;;;;;;16.67;15.47;;;15.30;99.90;;;;;;2615676;39;20524;-73
2023/06/09 03:41:43;;;;;;;22.73;16.20;;;15.30;99.90;;;;;;2615287;54;20387;-73
2023/06/09 03:47:30;;;;;;;17.30;15.60;;;15.30;99.90;;;;;;2612132;54;20134;-73
2023/06/09 03:50:44;;;;;;;20.40;18.20;;;15.30;99.90;;;;;;2611217;54;20462;-73
2023/06/09 03:53:10;;;;;;;16.70;15.20;;;15.40;99.90;;;;;;2611072;54;20274;-73
2023/06/09 03:58:58;;;;;;;18.43;16.83;;;15.40;99.90;;;;;;2611561;54;20243;-73
2023/06/09 04:04:45;;;;;;;18.17;16.47;;;15.50;99.90;;;;;;2611772;54;20688;-73
2023/06/09 04:10:33;;;;;;;18.10;16.30;;;15.60;99.90;;;;;;2610676;54;21277;-73
2023/06/09 04:16:21;;;;;;;16.77;15.40;;;15.70;99.90;;;;;;2611252;54;20138;-73
2023/06/09 04:22:10;;;;;;;17.63;16.00;;;15.70;99.90;;;;;;2610931;54;20126;-73
2023/06/09 04:28:00;;;;;;;19.53;17.83;;;15.90;99.90;;;;;;2613505;39;20779;-73
2023/06/09 04:33:48;;;;;;;18.00;16.27;;;16.00;99.90;;;;;;2611156;54;20404;-73
2023/06/09 04:39:36;;;;;;;22.07;16.70;;;16.30;99.90;;;;;;2611421;54;20657;-73
2023/06/09 04:45:33;;;;;;;21.53;19.73;;;16.70;99.90;;;;;;2610930;54;20130;-74
2023/06/09 04:55:14;;;;;;;20.50;18.90;;;17.40;99.90;;;;;;2611920;39;20814;-74
2023/06/09 05:01:01;;;;;;;23.37;21.13;;;17.80;99.90;;;;;;2611407;54;20399;-73
2023/06/09 05:06:50;;;;;;;21.57;19.67;;;18.10;99.90;;;;;;2611148;54;20611;-73
2023/06/09 05:12:39;;;;;;;24.90;22.23;;;18.50;99.90;;;;;;2611127;54;20375;-74
2023/06/09 05:18:27;;;;;;;23.13;21.20;;;18.90;99.90;;;;;;2611172;54;20427;-74
2023/06/09 05:24:15;;;;;;;24.17;22.43;;;19.20;99.90;;;;;;2611960;54;20170;-73
2023/06/09 05:30:03;;;;;;;26.07;23.80;;;19.90;99.90;;;;;;2610458;54;20158;-73
2023/06/09 05:35:51;;;;;;;25.17;23.13;;;19.50;99.90;;;;;;2611185;47;20867;-72
2023/06/09 05:38:54;;;;;;;25.47;23.57;;;19.40;99.90;;;;;;2610105;47;20415;-74
2023/06/09 05:41:20;;;;;;;25.57;23.37;;;19.60;99.90;;;;;;2612889;51;20197;-73
2023/06/09 05:47:08;;;;;;;24.93;23.10;;;20.10;99.90;;;;;;2610898;54;20384;-74
2023/06/09 05:52:56;;;;;;;25.77;23.80;;;20.30;99.90;;;;;;2613603;54;20229;-74
2023/06/09 05:58:44;;;;;;;25.53;22.87;;;20.80;99.90;;;;;;2613347;54;20134;-74
2023/06/09 06:04:31;;;;;;;23.50;21.83;;;21.20;99.90;;;;;;2612669;54;20174;-74
2023/06/09 06:10:19;;;;;;;22.97;21.27;;;21.40;99.90;;;;;;2611722;54;20127;-73
2023/06/09 06:16:07;;;;;;;23.00;21.40;;;21.50;99.90;;;;;;2611579;54;20163;-74
2023/06/09 06:21:55;;;;;;;26.27;24.60;;;22.00;99.90;;;;;;2612259;39;21759;-74
2023/06/09 06:27:42;;;;;;;24.83;23.23;;;22.10;99.90;;;;;;2611055;46;20162;-73
2023/06/09 06:33:31;;;;;;;25.47;23.47;;;22.30;99.90;;;;;;2612051;39;20530;-74
2023/06/09 06:39:20;;;;;;;24.70;22.90;;;23.10;99.90;;;;;;2611644;54;21072;-73
2023/06/09 06:45:08;;;;;;;23.53;22.00;;;23.30;99.90;;;;;;2611257;54;20400;-74
2023/06/09 06:55:14;;;;;;;23.63;22.23;;;23.90;99.90;;;;;;2611373;39;21212;-73
2023/06/09 07:01:03;;;;;;;25.87;23.90;;;23.70;99.90;;;;;;2611884;39;20468;-74
2023/06/09 07:06:51;;;;;;;24.30;22.80;;;24.00;91.00;;;;;;2614120;54;20388;-73
2023/06/09 07:12:39;;;;;;;23.87;22.40;;;24.20;76.20;;;;;;2613971;54;20456;-74
2023/06/09 07:18:28;;;;;;;22.97;21.50;;;24.80;63.90;;;;;;2611067;54;20410;-73
2023/06/09 07:24:15;;;;;;;24.17;22.60;;;24.60;58.50;;;;;;2614345;54;20420;-73
2023/06/09 07:30:03;;;;;;;22.33;21.13;;;25.30;51.00;;;;;;2615149;54;20123;-74
2023/06/09 07:35:52;;;;;;;23.83;22.40;;;25.40;50.90;;;;;;2611129;54;21235;-74
2023/06/09 07:41:40;;;;;;;22.87;21.60;;;25.90;47.00;;;;;;2611513;39;20769;-74
2023/06/09 07:47:28;;;;;;;22.63;21.10;;;26.00;47.40;;;;;;2611165;54;20663;-75
2023/06/09 07:50:46;;;;;;;21.83;20.40;;;25.90;47.60;;;;;;2610998;54;20419;-74
2023/06/09 07:53:12;;;;;;;22.93;21.43;;;26.00;48.10;;;;;;2611050;54;20161;-74
2023/06/09 07:59:00;;;;;;;22.90;21.40;;;26.80;41.40;;;;;;2611334;54;20798;-73
2023/06/09 08:04:47;;;;;;;21.60;20.30;;;26.60;38.00;;;;;;2611549;54;20158;-74
2023/06/09 08:10:35;;;;;;;22.20;20.50;;;27.00;33.40;;;;;;2611666;54;20149;-73
2023/06/09 08:16:23;;;;;;;22.07;20.53;;;26.70;31.80;;;;;;2611632;54;20151;-74
2023/06/09 08:22:12;;;;;;;21.87;20.10;;;27.30;30.10;;;;;;2612529;54;20958;-74
2023/06/09 08:27:59;;;;;;;19.77;17.90;;;27.10;28.00;;;;;;2610891;54;20142;-73
2023/06/09 08:33:47;;;;;;;18.43;17.43;;;27.50;20.10;;;;;;2614145;54;20162;-74
2023/06/09 08:39:35;;;;;;;18.00;17.07;;;27.50;21.60;;;;;;2610986;54;20396;-74
2023/06/09 08:45:24;;;;;;;19.03;17.93;;;27.90;17.10;;;;;;2611155;54;20134;-73
2023/06/09 08:55:15;;;;;;;19.33;18.03;;;28.40;15.70;;;;;;2615049;54;20383;-75
2023/06/09 09:01:03;;;;;;;18.33;16.80;;;28.00;14.30;;;;;;2613024;54;21251;-74
2023/06/09 09:06:53;;;;;;;18.43;17.13;;;29.10;14.30;;;;;;2610769;54;20989;-74
2023/06/09 09:19:30;;;;;;;17.70;16.60;;;29.00;6.70;;;;;;2615487;54;20933;-74
2023/06/09 09:25:21;;;;;;;18.97;17.87;;;28.30;9.00;;;;;;2613942;54;20511;-74
2023/06/09 09:31:09;;;;;;;17.63;16.33;;;29.30;9.00;;;;;;2612892;54;20379;-74
2023/06/09 09:36:58;;;;;;;16.03;15.13;;;29.70;5.10;;;;;;2613219;54;21001;-74
2023/06/09 09:42:47;;;;;;;19.10;17.60;;;29.80;5.30;;;;;;2612258;39;20859;-74
2023/06/09 09:48:39;;;;;;;16.63;15.63;;;29.10;4.20;;;;;;2615158;54;20398;-75
2023/06/09 09:57:49;;;;;;;16.77;15.80;;;29.80;2.70;;;;;;2613796;54;20402;-75
2023/06/09 10:03:42;;;;;;;16.60;15.70;;;30.40;1.00;;;;;;2613539;54;20367;-73
2023/06/09 10:09:30;;;;;;;15.97;15.07;;;29.70;1.00;;;;;;2611745;54;20483;-74
2023/06/09 10:15:20;;;;;;;17.10;16.10;;;28.90;1.00;;;;;;2612737;54;20411;-74
2023/06/09 10:21:10;;;;;;;17.17;15.83;;;30.20;1.00;;;;;;2611612;54;20469;-73
2023/06/09 10:26:59;;;;;;;14.70;13.80;;;30.40;1.00;;;;;;2611020;54;20395;-73
2023/06/09 10:39:19;;;;;;;14.27;13.47;;;29.90;1.00;;;;;;2611635;54;20395;-74
2023/06/09 10:45:14;;;;;;;15.10;14.20;;;31.20;1.00;;;;;;2612727;46;20490;-73
2023/06/09 10:51:27;;;;;;;15.53;14.43;;;31.30;1.00;;;;;;2611288;54;20418;-73
2023/06/09 10:57:35;;;;;;;14.40;13.60;;;32.30;1.00;;;;;;2614937;54;20495;-74
2023/06/09 11:03:30;;;;;;;15.50;14.70;;;31.10;1.00;;;;;;2610962;54;20387;-74
2023/06/09 11:06:34;;;;;;;15.00;13.90;;;31.60;1.00;;;;;;2611301;54;20408;-73
2023/06/09 11:09:09;;;;;;;14.50;13.50;;;30.60;1.00;;;;;;2612164;39;20840;-74
2023/06/09 11:15:01;;;;;;;14.30;13.40;;;31.10;1.00;;;;;;2611394;54;20384;-74
2023/06/09 11:27:33;;;;;;;15.57;14.17;;;32.00;1.00;;;;;;2609765;54;20403;-73
2023/06/09 11:40:07;;;;;;;14.43;13.53;;;31.30;1.00;;;;;;2613393;54;20416;-73
2023/06/09 11:46:02;;;;;;;15.80;14.60;;;30.40;1.00;;;;;;2611443;54;20418;-75
2023/06/09 11:51:56;;;;;;;15.30;14.40;;;31.30;1.00;;;;;;2614135;39;20521;-74
2023/06/09 11:58:20;;;;;;;16.50;15.30;;;31.30;1.00;;;;;;2613674;54;21035;-74
2023/06/09 12:01:01;;;;;;;16.77;15.63;;;31.10;1.00;;;;;;2614147;39;20837;-74
2023/06/09 12:06:50;;;;;;;16.57;15.37;;;31.60;1.00;;;;;;2614064;54;20356;-75
2023/06/09 12:12:48;;;;;;;16.80;15.60;;;31.30;1.00;;;;;;2613897;54;20431;-74
2023/06/09 12:18:36;;;;;;;15.30;14.27;;;31.40;1.00;;;;;;2611043;39;20873;-74
2023/06/09 12:24:27;;;;;;;15.57;14.50;;;31.50;1.00;;;;;;2611050;39;20288;-74
2023/06/09 12:36:58;;;;;;;16.50;15.30;;;31.50;1.00;;;;;;2610713;54;21288;-69
2023/06/09 12:42:49;;;;;;;15.77;14.67;;;31.20;1.00;;;;;;2610614;54;20430;-70
2023/06/09 12:48:56;;;;;;;17.10;15.90;;;29.80;1.00;;;;;;2612422;54;20368;-70
2023/06/09 12:54:50;;;;;;;17.90;16.73;;;29.10;1.00;;;;;;2610821;54;20414;-69
2023/06/09 13:04:00;;;;;;;16.70;15.50;;;29.10;1.00;;;;;;2610548;54;20430;-69
2023/06/09 13:09:48;;;;;;;16.83;15.80;;;31.20;1.00;;;;;;2610867;54;20134;-70
2023/06/09 13:15:35;;;;;;;16.50;15.30;;;31.10;1.00;;;;;;2610491;54;20166;-69
2023/06/09 13:21:23;;;;;;;16.37;14.97;;;31.80;1.00;;;;;;2608123;54;20166;-69
2023/06/09 13:27:11;;;;;;;16.83;15.40;;;31.50;1.00;;;;;;2606724;39;20658;-69
2023/06/09 13:32:59;;;;;;;17.10;15.90;;;30.40;1.00;;;;;;2607950;54;20246;-69
2023/06/09 13:38:46;;;;;;;17.27;15.73;;;30.70;1.00;;;;;;2609362;54;20138;-68
2023/06/09 13:44:34;;;;;;;16.23;15.17;;;31.40;1.00;;;;;;2606342;39;20369;-69
2023/06/09 13:50:24;;;;;;;18.00;16.73;;;30.30;1.00;;;;;;2608909;54;20147;-70
2023/06/09 13:56:14;;;;;;;17.50;16.10;;;30.70;1.00;;;;;;2608645;54;20519;-69
2023/06/09 13:59:19;;;;;;;17.40;16.20;;;31.60;1.00;;;;;;2606923;47;20459;-67
2023/06/09 14:01:46;;;;;;;17.23;16.03;;;31.00;1.00;;;;;;2606364;54;20412;-70
2023/06/09 14:07:33;;;;;;;17.83;16.50;;;31.60;1.00;;;;;;2608400;54;20387;-69
2023/06/09 14:13:21;;;;;;;17.47;16.37;;;32.30;1.00;;;;;;2609234;54;20664;-69
2023/06/09 14:19:09;;;;;;;18.20;16.80;;;32.60;1.00;;;;;;2609809;39;20700;-69
2023/06/09 14:24:57;;;;;;;17.93;16.73;;;31.90;1.00;;;;;;2609762;54;20395;-70
2023/06/09 14:30:45;;;;;;;18.00;17.00;;;32.10;1.00;;;;;;2610143;54;20134;-70
2023/06/09 14:36:32;;;;;;;18.23;17.13;;;30.70;1.00;;;;;;2610912;54;20963;-69
2023/06/09 14:42:20;;;;;;;19.40;18.20;;;30.70;1.00;;;;;;2609911;39;20536;-70
2023/06/09 14:48:08;;;;;;;20.50;19.00;;;31.30;1.00;;;;;;2610884;54;21777;-70
2023/06/09 14:53:56;;;;;;;18.70;17.40;;;31.90;1.00;;;;;;2609567;54;20415;-70
2023/06/09 15:03:46;;;;;;;19.37;18.27;;;32.30;1.00;;;;;;2608280;54;20569;-70
2023/06/09 15:09:34;;;;;;;20.50;19.33;;;30.80;1.00;;;;;;2607633;54;20981;-70
2023/06/09 15:15:25;;;;;;;18.63;17.40;;;31.60;1.00;;;;;;2607931;54;20258;-70
2023/06/09 15:21:13;;;;;;;20.83;19.37;;;31.20;1.00;;;;;;2606251;54;20427;-70
2023/06/09 15:27:01;;;;;;;18.63;17.53;;;30.10;1.00;;;;;;2610836;54;20166;-69
2023/06/09 15:32:48;;;;;;;17.27;16.27;;;30.50;1.00;;;;;;2614391;54;20121;-70
2023/06/09 15:38:36;;;;;;;18.87;17.57;;;30.60;1.00;;;;;;2611812;54;20215;-70
2023/06/09 15:44:24;;;;;;;18.67;17.30;;;30.50;1.00;;;;;;2609796;54;20141;-70
2023/06/09 15:50:11;;;;;;;18.20;17.10;;;30.50;1.00;;;;;;2613898;54;20163;-69
2023/06/09 15:55:59;;;;;;;18.63;17.40;;;30.90;1.00;;;;;;2609928;54;20134;-70
2023/06/09 15:59:19;;;;;;;17.90;16.70;;;30.70;1.00;;;;;;2611392;54;21440;-70
2023/06/09 16:01:44;;;;;;;18.03;16.73;;;30.90;1.00;;;;;;2611365;54;20230;-70
2023/06/09 16:07:32;;;;;;;16.93;15.83;;;31.00;1.00;;;;;;2612204;54;20249;-70
2023/06/09 16:13:20;;;;;;;19.70;18.40;;;31.00;1.00;;;;;;2609698;54;20134;-69
2023/06/09 16:19:08;;;;;;;18.23;17.23;;;30.90;1.00;;;;;;2611151;39;20546;-69
2023/06/09 16:24:56;;;;;;;21.57;20.37;;;29.70;1.00;;;;;;2609690;54;20142;-69
2023/06/09 16:30:44;;;;;;;20.90;19.80;;;30.20;1.00;;;;;;2610726;54;20266;-69
2023/06/09 16:36:32;;;;;;;21.53;20.47;;;29.90;1.00;;;;;;2610234;54;20395;-70
2023/06/09 16:42:20;;;;;;;20.83;19.73;;;29.90;1.00;;;;;;2609062;54;20122;-69
2023/06/09 16:48:07;;;;;;;20.83;19.60;;;30.10;1.00;;;;;;2607697;54;20661;-69
2023/06/09 16:53:56;;;;;;;20.90;19.80;;;29.80;1.00;;;;;;2612208;54;20251;-70
2023/06/09 17:03:46;;;;;;;21.37;20.37;;;30.00;1.00;;;;;;2611479;54;20440;-70
2023/06/09 17:09:34;;;;;;;20.90;19.80;;;29.70;1.00;;;;;;2609687;54;20391;-69
2023/06/09 17:15:24;;;;;;;22.10;20.87;;;29.90;1.00;;;;;;2609877;54;20395;-70
2023/06/09 17:21:11;;;;;;;21.97;20.60;;;29.20;1.00;;;;;;2609620;54;20929;-69
2023/06/09 17:26:59;;;;;;;20.63;19.53;;;29.10;1.00;;;;;;2612316;39;20551;-69
2023/06/09 17:32:47;;;;;;;21.33;20.23;;;28.80;1.00;;;;;;2612299;54;20946;-70
2023/06/09 17:38:35;;;;;;;21.53;20.37;;;28.70;1.00;;;;;;2612725;54;20143;-70
2023/06/09 17:44:23;;;;;;;21.63;20.50;;;28.40;1.00;;;;;;2610377;54;20146;-69
2023/06/09 17:50:10;;;;;;;21.93;20.53;;;28.20;1.00;;;;;;2610284;54;20122;-70
2023/06/09 17:55:58;;;;;;;22.47;21.20;;;28.00;1.00;;;;;;2609382;54;21008;-69
2023/06/09 17:59:19;;;;;;;23.90;22.33;;;27.90;1.00;;;;;;2609712;54;20507;-70
2023/06/09 18:01:45;;;;;;;22.47;20.60;;;27.80;1.00;;;;;;2608686;54;20159;-70
2023/06/09 18:07:32;;;;;;;21.93;20.77;;;27.30;1.00;;;;;;2610619;39;20551;-70
2023/06/09 18:13:20;;;;;;;22.20;20.83;;;27.10;1.00;;;;;;2609884;54;20165;-69
2023/06/09 18:19:08;;;;;;;23.37;21.80;;;26.90;1.00;;;;;;2612529;54;20137;-70
2023/06/09 18:24:56;;;;;;;21.83;20.70;;;26.70;1.00;;;;;;2610948;54;20135;-69
2023/06/09 18:30:48;;;;;;;21.37;19.97;;;26.60;1.00;;;;;;2613117;54;20123;-69
2023/06/09 18:36:36;;;;;;;22.57;21.00;;;26.50;1.00;;;;;;2614720;54;20420;-69
2023/06/09 18:42:24;;;;;;;22.33;20.73;;;26.50;1.00;;;;;;2613988;54;20137;-70
2023/06/09 18:48:12;;;;;;;21.20;19.90;;;26.40;1.00;;;;;;2614349;54;20154;-70
2023/06/09 18:54:00;;;;;;;21.83;20.73;;;26.40;1.00;;;;;;2612995;54;20434;-68
2023/06/09 19:03:47;;;;;;;21.10;20.00;;;26.20;1.00;;;;;;2614140;46;20446;-69
2023/06/09 19:06:50;;;;;;;20.50;19.40;;;26.10;1.00;;;;;;2613314;47;20419;-71
2023/06/09 19:09:16;;;;;;;21.43;19.97;;;26.00;1.20;;;;;;2612961;54;20566;-70
2023/06/09 19:15:05;;;;;;;22.57;21.27;;;25.70;2.60;;;;;;2614100;54;20122;-71
2023/06/09 19:20:55;;;;;;;21.80;20.70;;;25.60;4.70;;;;;;2613573;54;20438;-71
2023/06/09 19:26:43;;;;;;;22.50;21.03;;;25.50;7.10;;;;;;2613411;54;20412;-70
2023/06/09 19:32:30;;;;;;;23.13;21.83;;;25.30;9.20;;;;;;2612139;54;20739;-70
2023/06/09 19:38:18;;;;;;;21.57;20.30;;;25.20;10.40;;;;;;2612374;46;20146;-70
2023/06/09 19:44:06;;;;;;;23.20;21.67;;;25.00;12.10;;;;;;2614432;54;20135;-70
2023/06/09 19:49:55;;;;;;;22.57;21.27;;;24.80;13.70;;;;;;2614776;39;20510;-70
2023/06/09 19:55:43;;;;;;;21.60;20.40;;;24.70;13.30;;;;;;2611376;54;20363;-70
2023/06/09 20:01:31;;;;;;;21.23;19.93;;;24.60;12.80;;;;;;2611034;54;20169;-69
2023/06/09 20:07:19;;;;;;;21.80;20.33;;;24.50;13.00;;;;;;2612937;54;20150;-71
2023/06/09 20:13:07;;;;;;;21.77;20.50;;;24.40;13.60;;;;;;2611389;54;20178;-70
2023/06/09 20:18:54;;;;;;;21.40;20.20;;;24.20;14.90;;;;;;2613378;54;20208;-70
2023/06/09 20:24:42;;;;;;;23.03;21.10;;;24.10;16.40;;;;;;2611549;54;20246;-70
2023/06/09 20:30:30;;;;;;;21.07;20.00;;;24.00;17.90;;;;;;2614322;54;20719;-70
2023/06/09 20:36:18;;;;;;;22.20;20.70;;;23.90;17.90;;;;;;2612609;54;20127;-69
2023/06/09 20:42:06;;;;;;;22.53;21.13;;;23.70;19.20;;;;;;2611320;54;20438;-70
2023/06/09 20:47:53;;;;;;;22.30;20.53;;;23.70;19.30;;;;;;2610599;54;20422;-70
2023/06/09 20:53:41;;;;;;;21.97;20.67;;;23.50;19.10;;;;;;2613079;54;20755;-70
2023/06/09 21:06:19;;;;;;;20.23;19.13;;;23.40;17.90;;;;;;2614829;39;20769;-70
2023/06/09 21:12:09;;;;;;;22.20;20.83;;;23.30;18.70;;;;;;2614675;54;20451;-70
2023/06/09 21:17:56;;;;;;;22.43;20.90;;;23.10;19.90;;;;;;2610897;54;20441;-70
2023/06/09 21:23:44;;;;;;;20.83;19.70;;;23.00;20.70;;;;;;2611309;31;20577;-71
2023/06/09 21:29:32;;;;;;;21.83;20.53;;;22.90;22.80;;;;;;2609543;54;20197;-71
2023/06/09 21:35:19;;;;;;;21.90;20.60;;;22.80;23.80;;;;;;2611172;54;20895;-71
2023/06/09 21:41:07;;;;;;;21.33;20.17;;;22.60;25.10;;;;;;2611411;54;20150;-72
2023/06/09 21:46:55;;;;;;;22.97;21.57;;;22.60;25.60;;;;;;2612008;54;20219;-72
2023/06/09 21:52:42;;;;;;;22.33;20.93;;;22.40;27.20;;;;;;2611093;54;20293;-70
2023/06/09 21:58:30;;;;;;;22.07;20.57;;;22.30;27.60;;;;;;2611235;54;20134;-71
2023/06/09 22:04:18;;;;;;;22.87;21.20;;;22.10;30.30;;;;;;2611170;54;20294;-72
2023/06/09 22:13:46;;;;;;;22.87;21.20;;;22.00;32.40;;;;;;2608248;54;20511;-71
2023/06/09 22:19:35;;;;;;;22.10;20.90;;;22.00;32.10;;;;;;2614284;54;20498;-71
2023/06/09 22:25:22;;;;;;;20.70;19.70;;;21.90;32.50;;;;;;2611069;54;20398;-71
2023/06/09 22:31:10;;;;;;;23.77;21.63;;;21.80;32.70;;;;;;2610500;39;20890;-71
2023/06/09 22:36:57;;;;;;;21.83;20.53;;;21.70;33.50;;;;;;2610969;54;20708;-72
2023/06/09 22:42:45;;;;;;;21.63;20.43;;;21.70;33.00;;;;;;2611001;54;20254;-71
2023/06/09 22:48:37;;;;;;;22.30;20.90;;;21.70;32.10;;;;;;2612009;54;20747;-71
2023/06/09 22:54:25;;;;;;;22.40;21.20;;;21.70;33.60;;;;;;2611169;54;20512;-70
2023/06/09 23:00:13;;;;;;;21.90;20.50;;;21.50;35.20;;;;;;2611151;54;20370;-70
2023/06/09 23:12:53;;;;;;;23.23;21.83;;;21.20;42.40;;;;;;2613306;54;20471;-72
2023/06/09 23:18:40;;;;;;;22.93;21.13;;;21.10;46.70;;;;;;2612393;54;20273;-72
2023/06/09 23:24:28;;;;;;;21.67;20.47;;;20.80;57.10;;;;;;2612957;54;20130;-71
2023/06/09 23:30:16;;;;;;;21.37;20.13;;;20.50;75.20;;;;;;2613424;54;20383;-71
2023/06/09 23:36:03;;;;;;;22.60;21.00;;;20.20;95.90;;;;;;2611935;54;20964;-71
2023/06/09 23:41:51;;;;;;;22.53;21.10;;;20.30;98.30;;;;;;2610632;54;20123;-71
2023/06/09 23:47:38;;;;;;;21.50;20.33;;;20.10;99.90;;;;;;2612358;54;20169;-72
2023/06/09 23:53:26;;;;;;;21.90;20.50;;;19.90;99.90;;;;;;2610451;54;20146;-71
2023/06/09 23:59:14;;;;;;;22.37;20.83;;;19.60;99.90;;;;;;2612037;54;20133;-71
